Time;durP1;ratioP1;P1;durP2;ratioP2;P2;SDS_P1;SDS_P2;PMS_P1;PMS_P2;Temp;Humidity;BMP_temperature;BMP_pressure;BME280_temperature;BME280_humidity;BME280_pressure;Samples;Min_cycle;Max_cycle;Signal;HPM_P1;HPM_P2
2023/05/24 00:04:23;;;;;;;14.32;9.25;;;;;;;;;;9513837;30;20060;-73
2023/05/24 00:09:18;;;;;;;14.77;8.73;;;;;;;;;;9500131;30;20055;-73
2023/05/24 00:14:12;;;;;;;9.75;8.20;;;;;;;;;;9503841;30;20067;-74
2023/05/24 00:19:06;;;;;;;11.52;7.75;;;;;;;;;;9503226;30;20569;-73
2023/05/24 00:23:59;;;;;;;10.55;9.25;;;;;;;;;;9503460;30;20068;-72
2023/05/24 00:28:54;;;;;;;10.05;7.97;;;;;;;;;;9500916;30;20053;-73
2023/05/24 00:33:48;;;;;;;10.43;8.20;;;;;;;;;;9497404;30;20067;-73
2023/05/24 00:38:43;;;;;;;9.95;7.85;;;;;;;;;;9503266;30;20105;-73
2023/05/24 00:43:36;;;;;;;10.32;8.70;;;;;;;;;;9501546;30;20425;-72
2023/05/24 00:48:30;;;;;;;11.63;7.72;;;;;;;;;;9491043;30;20078;-73
2023/05/24 00:53:23;;;;;;;10.63;7.93;;;;;;;;;;9488709;30;20683;-72
2023/05/24 00:58:16;;;;;;;9.75;8.65;;;;;;;;;;9500613;30;20501;-72
2023/05/24 01:03:09;;;;;;;13.10;8.88;;;;;;;;;;9472702;30;20056;-73
2023/05/24 01:08:28;;;;;;;10.68;9.63;;;;;;;;;;9513711;30;20071;-72
2023/05/24 01:13:30;;;;;;;16.45;9.57;;;;;;;;;;9489365;30;20056;-73
2023/05/24 01:18:24;;;;;;;11.32;10.00;;;;;;;;;;9482242;30;20139;-72
2023/05/24 01:23:25;;;;;;;13.98;10.73;;;;;;;;;;9495564;30;20087;-73
2023/05/24 01:28:18;;;;;;;18.05;10.98;;;;;;;;;;9486742;30;20471;-72
2023/05/24 01:33:11;;;;;;;12.23;11.13;;;;;;;;;;9507673;30;20137;-72
2023/05/24 01:38:11;;;;;;;12.75;11.43;;;;;;;;;;9506947;30;20464;-72
2023/05/24 01:43:30;;;;;;;17.98;11.93;;;;;;;;;;9502480;30;20052;-73
2023/05/24 01:48:50;;;;;;;15.93;12.65;;;;;;;;;;9482664;30;20056;-72
2023/05/24 01:53:46;;;;;;;13.10;11.88;;;;;;;;;;9483248;30;20449;-72
2023/05/24 01:58:41;;;;;;;16.52;12.10;;;;;;;;;;9508610;30;20189;-73
2023/05/24 02:03:36;;;;;;;12.32;11.02;;;;;;;;;;9473009;30;20052;-72
2023/05/24 02:08:31;;;;;;;16.05;10.82;;;;;;;;;;9491329;30;20064;-73
2023/05/24 02:13:24;;;;;;;11.98;10.63;;;;;;;;;;9503949;30;20063;-73
2023/05/24 02:18:18;;;;;;;13.55;11.98;;;;;;;;;;9506126;29;20088;-73
2023/05/24 02:23:12;;;;;;;14.70;13.20;;;;;;;;;;9495351;30;20067;-72
2023/05/24 02:28:05;;;;;;;16.10;12.82;;;;;;;;;;9498505;30;20579;-72
2023/05/24 02:32:59;;;;;;;17.13;12.32;;;;;;;;;;9505340;30;20063;-73
2023/05/24 02:37:52;;;;;;;16.45;12.20;;;;;;;;;;9498594;30;20155;-72
2023/05/24 02:42:46;;;;;;;12.95;11.55;;;;;;;;;;9498555;30;20064;-73
2023/05/24 02:47:40;;;;;;;14.25;10.70;;;;;;;;;;9506472;30;20116;-72
2023/05/24 02:52:33;;;;;;;13.50;10.57;;;;;;;;;;9506001;30;20095;-72
2023/05/24 02:57:27;;;;;;;13.13;9.82;;;;;;;;;;9502678;30;20052;-72
2023/05/24 03:02:20;;;;;;;11.27;9.15;;;;;;;;;;9505661;30;20595;-72
2023/05/24 03:07:14;;;;;;;17.13;9.10;;;;;;;;;;9510673;30;20536;-72
2023/05/24 03:12:08;;;;;;;9.85;8.90;;;;;;;;;;9469588;30;20061;-72
2023/05/24 03:17:03;;;;;;;13.68;8.60;;;;;;;;;;9501626;30;20063;-72
2023/05/24 03:21:57;;;;;;;9.60;8.15;;;;;;;;;;9503359;30;20060;-72
2023/05/24 03:26:52;;;;;;;10.05;8.68;;;;;;;;;;9504939;30;20048;-72
2023/05/24 03:31:45;;;;;;;8.80;7.70;;;;;;;;;;9503362;30;20104;-72
2023/05/24 03:36:38;;;;;;;11.02;8.25;;;;;;;;;;9502412;30;20101;-72
2023/05/24 03:41:33;;;;;;;12.35;10.02;;;;;;;;;;9490876;30;20084;-72
2023/05/24 03:46:27;;;;;;;14.15;9.93;;;;;;;;;;9481002;30;20048;-72
2023/05/24 03:51:23;;;;;;;11.85;10.23;;;;;;;;;;9492067;30;20068;-73
2023/05/24 03:56:17;;;;;;;11.52;9.02;;;;;;;;;;9479547;30;20054;-72
2023/05/24 04:01:10;;;;;;;13.77;9.20;;;;;;;;;;9484208;30;20502;-72
2023/05/24 04:06:27;;;;;;;9.50;7.95;;;;;;;;;;9515173;30;20508;-72
2023/05/24 04:11:22;;;;;;;11.88;8.68;;;;;;;;;;9502141;30;20052;-72
2023/05/24 04:16:16;;;;;;;9.40;7.63;;;;;;;;;;9508150;30;20065;-72
2023/05/24 04:21:10;;;;;;;11.13;7.65;;;;;;;;;;9488004;30;20056;-73
2023/05/24 04:26:04;;;;;;;9.80;8.05;;;;;;;;;;9499027;30;20125;-72
2023/05/24 04:30:57;;;;;;;9.90;7.78;;;;;;;;;;9501805;30;20070;-72
2023/05/24 04:35:52;;;;;;;12.20;8.00;;;;;;;;;;9501443;30;20056;-72
2023/05/24 04:40:46;;;;;;;10.25;7.50;;;;;;;;;;9502995;30;20123;-72
2023/05/24 04:45:40;;;;;;;9.73;8.23;;;;;;;;;;9501934;30;20084;-72
2023/05/24 04:50:36;;;;;;;14.55;8.05;;;;;;;;;;9479374;30;20052;-71
2023/05/24 04:55:29;;;;;;;9.77;8.48;;;;;;;;;;9502730;30;20067;-71
2023/05/24 05:00:22;;;;;;;9.63;8.70;;;;;;;;;;9494680;30;20076;-71
2023/05/24 05:05:16;;;;;;;12.10;8.60;;;;;;;;;;9499609;30;20048;-71
2023/05/24 05:10:11;;;;;;;10.50;7.50;;;;;;;;;;9490944;30;20087;-71
2023/05/24 05:15:05;;;;;;;9.88;8.45;;;;;;;;;;9527211;30;20492;-72
2023/05/24 05:19:59;;;;;;;11.80;7.90;;;;;;;;;;9516169;30;20531;-72
2023/05/24 05:24:53;;;;;;;10.88;8.50;;;;;;;;;;9507041;30;20139;-72
2023/05/24 05:29:46;;;;;;;15.45;8.45;;;;;;;;;;9521684;30;20059;-73
2023/05/24 05:34:40;;;;;;;16.70;8.00;;;;;;;;;;9506341;30;20064;-72
2023/05/24 05:39:33;;;;;;;14.07;8.20;;;;;;;;;;9498070;30;20045;-72
2023/05/24 05:44:27;;;;;;;18.60;9.15;;;;;;;;;;9489997;30;20109;-75
2023/05/24 05:49:21;;;;;;;9.95;7.68;;;;;;;;;;9491403;30;20064;-72
2023/05/24 05:54:17;;;;;;;15.00;8.15;;;;;;;;;;9489787;30;20521;-71
2023/05/24 05:59:17;;;;;;;8.23;7.43;;;;;;;;;;9491979;30;20056;-70
2023/05/24 06:04:10;;;;;;;13.95;7.80;;;;;;;;;;9486166;30;20140;-70
2023/05/24 06:09:04;;;;;;;12.23;8.20;;;;;;;;;;9482800;30;20052;-74
2023/05/24 06:13:58;;;;;;;12.07;7.68;;;;;;;;;;9504470;30;20136;-69
2023/05/24 06:18:52;;;;;;;13.27;8.05;;;;;;;;;;9503283;30;20056;-71
2023/05/24 06:23:58;;;;;;;11.20;7.68;;;;;;;;;;9504857;30;20075;-71
2023/05/24 06:28:52;;;;;;;11.43;8.32;;;;;;;;;;9509403;30;20056;-71
2023/05/24 06:33:46;;;;;;;11.20;9.73;;;;;;;;;;9506479;30;20092;-72
2023/05/24 06:38:56;;;;;;;14.60;13.10;;;;;;;;;;9507528;30;20463;-72
2023/05/24 06:43:50;;;;;;;13.40;11.43;;;;;;;;;;9504667;30;20465;-74
2023/05/24 06:48:43;;;;;;;13.25;10.07;;;;;;;;;;9488866;30;20056;-74
2023/05/24 06:53:37;;;;;;;20.80;11.98;;;;;;;;;;9496480;30;20141;-74
2023/05/24 06:58:31;;;;;;;13.02;11.65;;;;;;;;;;9494876;30;20053;-74
2023/05/24 07:03:25;;;;;;;15.00;11.73;;;;;;;;;;9496805;30;20080;-74
2023/05/24 07:08:19;;;;;;;11.48;10.23;;;;;;;;;;9491207;30;20060;-73
2023/05/24 07:13:13;;;;;;;12.13;10.85;;;;;;;;;;9494642;30;20425;-74
2023/05/24 07:18:06;;;;;;;20.15;12.75;;;;;;;;;;9489113;30;20064;-75
2023/05/24 07:23:00;;;;;;;19.10;9.63;;;;;;;;;;9494984;30;20056;-74
2023/05/24 07:27:54;;;;;;;11.70;9.40;;;;;;;;;;9499924;30;20052;-71
2023/05/24 07:32:48;;;;;;;12.55;9.98;;;;;;;;;;9503020;30;20075;-73
2023/05/24 07:37:42;;;;;;;16.15;9.68;;;;;;;;;;9501220;30;20151;-75
2023/05/24 07:42:35;;;;;;;10.25;7.30;;;;;;;;;;9486527;30;20057;-76
2023/05/24 07:47:29;;;;;;;13.45;7.78;;;;;;;;;;9504784;30;20048;-76
2023/05/24 07:52:23;;;;;;;11.95;8.68;;;;;;;;;;9501635;30;20060;-75
2023/05/24 07:57:16;;;;;;;13.27;7.65;;;;;;;;;;9501225;30;20453;-75
2023/05/24 08:02:12;;;;;;;13.73;9.55;;;;;;;;;;9504271;30;20052;-78
2023/05/24 08:07:08;;;;;;;9.45;8.60;;;;;;;;;;9491238;30;20373;-77
2023/05/24 08:12:07;;;;;;;11.73;9.43;;;;;;;;;;9491318;30;20060;-74
2023/05/24 08:16:59;;;;;;;15.80;9.70;;;;;;;;;;9496776;30;20056;-73
2023/05/24 08:22:03;;;;;;;9.73;8.73;;;;;;;;;;9495547;30;20064;-74
2023/05/24 08:26:56;;;;;;;10.23;8.75;;;;;;;;;;9482317;30;20451;-77
2023/05/24 08:31:50;;;;;;;12.32;8.48;;;;;;;;;;9508169;30;20261;-74
2023/05/24 08:36:44;;;;;;;12.65;9.70;;;;;;;;;;9491503;30;20060;-73
2023/05/24 08:41:38;;;;;;;13.30;9.27;;;;;;;;;;9501212;30;20067;-76
2023/05/24 08:46:53;;;;;;;12.00;8.95;;;;;;;;;;9500235;30;20061;-75
2023/05/24 08:51:47;;;;;;;10.07;9.18;;;;;;;;;;9489532;30;20060;-74
2023/05/24 08:56:41;;;;;;;12.00;9.50;;;;;;;;;;9480163;30;20064;-75
2023/05/24 09:01:36;;;;;;;11.13;10.00;;;;;;;;;;9495470;30;20063;-75
2023/05/24 09:06:30;;;;;;;13.85;9.65;;;;;;;;;;9501102;30;20071;-75
2023/05/24 09:11:24;;;;;;;12.25;9.90;;;;;;;;;;9470174;30;20064;-68
2023/05/24 09:16:17;;;;;;;10.55;9.15;;;;;;;;;;9500279;30;20052;-65
2023/05/24 09:21:11;;;;;;;13.43;8.55;;;;;;;;;;9500036;30;20455;-65
2023/05/24 09:26:08;;;;;;;12.20;8.25;;;;;;;;;;9501166;30;20056;-68
2023/05/24 09:31:03;;;;;;;10.90;8.73;;;;;;;;;;9501374;30;20064;-71
2023/05/24 09:36:01;;;;;;;10.38;7.45;;;;;;;;;;9501563;30;20130;-71
2023/05/24 09:41:05;;;;;;;12.30;7.25;;;;;;;;;;9487850;30;20059;-72
2023/05/24 09:46:02;;;;;;;11.35;8.60;;;;;;;;;;9500134;30;20424;-74
2023/05/24 09:51:04;;;;;;;14.55;7.72;;;;;;;;;;9498371;30;20143;-75
2023/05/24 09:56:00;;;;;;;7.03;6.22;;;;;;;;;;9507518;30;20060;-74
2023/05/24 10:01:06;;;;;;;10.98;6.00;;;;;;;;;;9495565;30;20060;-74
2023/05/24 10:06:02;;;;;;;10.25;5.90;;;;;;;;;;9487772;30;20147;-72
2023/05/24 10:10:56;;;;;;;12.17;5.80;;;;;;;;;;9501923;30;20060;-74
2023/05/24 10:15:50;;;;;;;10.18;6.20;;;;;;;;;;9506741;30;20071;-73
2023/05/24 10:20:43;;;;;;;6.53;5.93;;;;;;;;;;9513404;30;20071;-73
2023/05/24 10:25:41;;;;;;;10.23;6.50;;;;;;;;;;9505856;30;20060;-74
2023/05/24 10:31:00;;;;;;;10.88;6.38;;;;;;;;;;9491187;30;20063;-75
2023/05/24 10:35:54;;;;;;;5.40;4.90;;;;;;;;;;9500645;29;20139;-74
2023/05/24 10:40:47;;;;;;;9.50;4.95;;;;;;;;;;9494329;30;20063;-75
2023/05/24 10:45:42;;;;;;;8.77;5.68;;;;;;;;;;9501768;30;20472;-75
2023/05/24 10:50:36;;;;;;;12.68;5.75;;;;;;;;;;9502972;30;20689;-76
2023/05/24 10:55:28;;;;;;;9.10;4.97;;;;;;;;;;9504620;30;20505;-79
2023/05/24 11:00:26;;;;;;;8.10;6.68;;;;;;;;;;9500697;30;20399;-75
2023/05/24 11:05:45;;;;;;;5.53;4.45;;;;;;;;;;9460959;30;20556;-78
2023/05/24 11:10:40;;;;;;;11.60;4.88;;;;;;;;;;9446071;30;20056;-77
2023/05/24 11:15:36;;;;;;;5.43;4.78;;;;;;;;;;9445692;30;20056;-78
2023/05/24 11:20:29;;;;;;;6.55;4.57;;;;;;;;;;9440613;30;20052;-78
2023/05/24 11:25:22;;;;;;;8.77;4.93;;;;;;;;;;9492364;30;20131;-78
2023/05/24 11:30:17;;;;;;;6.55;5.43;;;;;;;;;;9485139;30;20084;-77
2023/05/24 11:35:11;;;;;;;7.50;5.50;;;;;;;;;;9485271;30;20133;-76
2023/05/24 11:40:08;;;;;;;5.15;4.53;;;;;;;;;;9485464;30;20055;-73
2023/05/24 11:45:05;;;;;;;8.75;5.13;;;;;;;;;;9485041;30;20056;-73
2023/05/24 11:49:58;;;;;;;7.65;4.82;;;;;;;;;;9484217;30;20056;-73
2023/05/24 11:54:53;;;;;;;7.93;4.77;;;;;;;;;;9509093;30;20071;-71
2023/05/24 11:59:47;;;;;;;6.78;5.53;;;;;;;;;;9483425;30;20061;-74
2023/05/24 12:04:42;;;;;;;10.75;5.72;;;;;;;;;;9494232;30;20067;-76
2023/05/24 12:09:34;;;;;;;8.38;5.25;;;;;;;;;;9489364;30;20091;-75
2023/05/24 12:14:31;;;;;;;10.95;6.43;;;;;;;;;;9498602;30;20579;-76
2023/05/24 12:19:28;;;;;;;6.97;6.22;;;;;;;;;;9485520;30;20115;-75
2023/05/24 12:24:25;;;;;;;11.93;6.15;;;;;;;;;;9482375;30;20135;-75
2023/05/24 12:29:19;;;;;;;7.53;6.80;;;;;;;;;;9496851;29;20048;-75
2023/05/24 12:34:18;;;;;;;7.23;6.50;;;;;;;;;;9499111;30;20146;-75
2023/05/24 12:39:32;;;;;;;11.50;5.70;;;;;;;;;;9502383;30;20523;-75
2023/05/24 12:44:37;;;;;;;6.88;6.05;;;;;;;;;;9493369;30;20095;-75
2023/05/24 12:49:31;;;;;;;7.10;6.43;;;;;;;;;;9482446;30;20539;-76
2023/05/24 12:54:26;;;;;;;14.00;5.95;;;;;;;;;;9491240;30;20106;-74
2023/05/24 12:59:18;;;;;;;;;;;;;;;;;;9500958;30;20060;-74
2023/05/24 13:04:12;;;;;;;9.13;6.60;;;;;;;;;;9487447;30;19926;-74
2023/05/24 13:09:07;;;;;;;5.32;3.35;;;;;;;;;;9501375;30;20055;-74
2023/05/24 13:14:03;;;;;;;3.95;2.17;;;;;;;;;;9495440;30;20060;-73
2023/05/24 13:18:56;;;;;;;11.45;2.80;;;;;;;;;;9495421;30;20110;-75
2023/05/24 13:23:50;;;;;;;7.03;2.17;;;;;;;;;;9474181;30;20071;-73
2023/05/24 13:28:44;;;;;;;24.77;3.00;;;;;;;;;;9487576;30;20064;-73
2023/05/24 13:33:58;;;;;;;48.97;7.45;;;;;;;;;;9500295;30;20615;-73
2023/05/24 13:38:53;;;;;;;69.80;8.23;;;;;;;;;;9484553;30;20410;-76
2023/05/24 13:44:06;;;;;;;34.97;8.60;;;;;;;;;;9499290;30;20036;-74
2023/05/24 13:49:01;;;;;;;8.10;4.95;;;;;;;;;;9505662;30;20064;-76
2023/05/24 13:53:55;;;;;;;6.80;4.82;;;;;;;;;;9498783;30;20064;-75
2023/05/24 13:58:48;;;;;;;7.18;4.78;;;;;;;;;;9491736;30;20056;-73
2023/05/24 14:03:41;;;;;;;15.63;7.22;;;;;;;;;;9501310;30;20052;-80
2023/05/24 14:08:36;;;;;;;8.32;7.53;;;;;;;;;;9506338;30;20052;-76
2023/05/24 14:13:29;;;;;;;9.00;7.05;;;;;;;;;;9504042;30;20398;-76
2023/05/24 14:18:47;;;;;;;7.05;6.35;;;;;;;;;;9498329;30;20064;-77
2023/05/24 14:23:43;;;;;;;9.48;6.43;;;;;;;;;;9504680;30;20071;-73
2023/05/24 14:28:36;;;;;;;6.53;5.57;;;;;;;;;;9504627;30;20059;-73
2023/05/24 14:33:30;;;;;;;6.40;5.05;;;;;;;;;;9510274;30;20095;-66
2023/05/24 14:38:23;;;;;;;14.52;7.15;;;;;;;;;;9500587;30;20060;-74
2023/05/24 14:43:17;;;;;;;7.30;5.50;;;;;;;;;;9508663;30;20048;-74
2023/05/24 14:48:11;;;;;;;5.43;4.93;;;;;;;;;;9503545;30;20520;-70
2023/05/24 14:53:10;;;;;;;7.28;4.93;;;;;;;;;;9499441;30;20059;-75
2023/05/24 14:58:19;;;;;;;9.88;6.25;;;;;;;;;;9498141;30;20049;-73
2023/05/24 15:03:13;;;;;;;8.13;5.10;;;;;;;;;;9494989;30;20060;-77
2023/05/24 15:08:09;;;;;;;9.02;5.35;;;;;;;;;;9510886;30;20082;-80
2023/05/24 15:13:04;;;;;;;9.90;7.32;;;;;;;;;;9512910;30;20144;-73
2023/05/24 15:18:00;;;;;;;14.40;9.75;;;;;;;;;;9508699;30;20064;-77
2023/05/24 15:22:54;;;;;;;14.93;9.63;;;;;;;;;;9505675;30;20491;-80
2023/05/24 15:27:47;;;;;;;16.25;11.32;;;;;;;;;;9503779;30;20060;-73
2023/05/24 15:32:40;;;;;;;12.13;8.50;;;;;;;;;;9494354;30;20497;-77
2023/05/24 15:37:33;;;;;;;13.13;11.48;;;;;;;;;;9493032;30;20127;-73
2023/05/24 15:42:27;;;;;;;16.50;11.10;;;;;;;;;;9506605;30;20079;-72
2023/05/24 15:47:20;;;;;;;15.85;13.63;;;;;;;;;;9496695;30;20068;-74
2023/05/24 15:52:14;;;;;;;16.08;14.07;;;;;;;;;;9502557;30;20102;-75
2023/05/24 15:57:07;;;;;;;10.43;8.55;;;;;;;;;;9499320;30;20064;-77
2023/05/24 16:02:00;;;;;;;10.57;9.57;;;;;;;;;;9508865;30;20058;-72
2023/05/24 16:06:54;;;;;;;8.80;7.93;;;;;;;;;;9498565;30;20069;-77
2023/05/24 16:11:47;;;;;;;9.05;8.15;;;;;;;;;;9505018;30;20534;-75
2023/05/24 16:16:42;;;;;;;9.25;7.13;;;;;;;;;;9505041;30;20056;-74
2023/05/24 16:21:35;;;;;;;9.82;8.20;;;;;;;;;;9487712;30;20056;-74
2023/05/24 16:26:29;;;;;;;11.05;8.30;;;;;;;;;;9510414;30;20067;-75
2023/05/24 16:31:22;;;;;;;10.40;8.27;;;;;;;;;;9504077;30;20071;-76
2023/05/24 16:36:16;;;;;;;12.48;9.32;;;;;;;;;;9496137;30;20421;-74
2023/05/24 16:41:09;;;;;;;11.32;9.70;;;;;;;;;;9504443;30;20056;-74
2023/05/24 16:46:03;;;;;;;12.35;10.98;;;;;;;;;;9505169;30;20060;-74
2023/05/24 16:50:58;;;;;;;11.18;9.90;;;;;;;;;;9503010;30;20064;-71
2023/05/24 16:55:53;;;;;;;14.00;10.55;;;;;;;;;;9506289;30;20437;-72
2023/05/24 17:00:46;;;;;;;17.92;10.60;;;;;;;;;;9504332;30;20071;-76
2023/05/24 17:05:41;;;;;;;20.15;11.82;;;;;;;;;;9512909;30;20062;-80
2023/05/24 17:10:35;;;;;;;17.20;10.98;;;;;;;;;;9512586;30;20054;-78
2023/05/24 17:15:28;;;;;;;15.52;11.20;;;;;;;;;;9503984;30;20583;-71
2023/05/24 17:20:22;;;;;;;15.00;11.20;;;;;;;;;;9511825;30;20060;-76
2023/05/24 17:25:15;;;;;;;15.70;9.50;;;;;;;;;;9516190;30;20478;-76
2023/05/24 17:30:09;;;;;;;14.32;10.45;;;;;;;;;;9500860;30;20547;-75
2023/05/24 17:35:02;;;;;;;11.05;10.05;;;;;;;;;;9494450;30;20465;-70
2023/05/24 17:39:56;;;;;;;15.80;12.65;;;;;;;;;;9511757;30;20047;-70
2023/05/24 17:44:50;;;;;;;13.65;12.27;;;;;;;;;;9501481;30;20406;-71
2023/05/24 17:49:44;;;;;;;18.98;11.73;;;;;;;;;;9512675;30;20047;-72
2023/05/24 17:54:37;;;;;;;16.80;12.43;;;;;;;;;;9505352;30;20055;-71
2023/05/24 17:59:32;;;;;;;16.63;11.27;;;;;;;;;;9512501;30;20062;-72
2023/05/24 18:04:26;;;;;;;14.95;11.82;;;;;;;;;;9509653;30;20143;-74
2023/05/24 18:09:20;;;;;;;16.95;13.82;;;;;;;;;;9509413;30;20057;-76
2023/05/24 18:14:13;;;;;;;12.68;11.05;;;;;;;;;;9511015;30;20060;-73
2023/05/24 18:19:07;;;;;;;13.05;10.65;;;;;;;;;;9499284;30;20139;-73
2023/05/24 18:24:01;;;;;;;13.40;11.85;;;;;;;;;;9503846;30;20060;-73
2023/05/24 18:28:54;;;;;;;19.90;13.75;;;;;;;;;;9511636;30;20114;-73
2023/05/24 18:33:47;;;;;;;20.42;12.85;;;;;;;;;;9496975;30;20501;-73
2023/05/24 18:38:41;;;;;;;13.32;11.70;;;;;;;;;;9505412;30;20056;-70
2023/05/24 18:43:35;;;;;;;13.82;11.25;;;;;;;;;;9503475;30;20063;-71
2023/05/24 18:48:29;;;;;;;18.13;12.18;;;;;;;;;;9509862;29;20086;-70
2023/05/24 18:53:22;;;;;;;18.17;12.75;;;;;;;;;;9510373;30;20047;-71
2023/05/24 18:58:16;;;;;;;15.18;11.35;;;;;;;;;;9501409;30;20086;-69
2023/05/24 19:03:10;;;;;;;16.30;13.23;;;;;;;;;;9508056;30;20447;-72
2023/05/24 19:08:03;;;;;;;14.65;13.05;;;;;;;;;;9507574;30;20052;-71
2023/05/24 19:12:57;;;;;;;16.00;13.55;;;;;;;;;;9507345;30;20056;-70
2023/05/24 19:17:52;;;;;;;21.77;12.73;;;;;;;;;;9503804;30;20056;-71
2023/05/24 19:22:46;;;;;;;15.88;12.05;;;;;;;;;;9506301;30;20056;-70
2023/05/24 19:27:39;;;;;;;19.00;13.77;;;;;;;;;;9494176;30;20063;-71
2023/05/24 19:32:51;;;;;;;19.48;13.05;;;;;;;;;;9485442;30;20476;-71
2023/05/24 19:37:44;;;;;;;19.73;13.38;;;;;;;;;;9487436;30;20056;-69
2023/05/24 19:42:38;;;;;;;15.20;13.60;;;;;;;;;;9495168;30;20489;-68
2023/05/24 19:47:31;;;;;;;18.02;14.77;;;;;;;;;;9498757;30;20665;-69
2023/05/24 19:52:25;;;;;;;14.35;12.65;;;;;;;;;;9502812;30;20083;-69
2023/05/24 19:57:20;;;;;;;19.02;13.18;;;;;;;;;;9501472;30;20488;-68
2023/05/24 20:02:14;;;;;;;27.25;13.75;;;;;;;;;;9498103;30;20060;-68
2023/05/24 20:07:09;;;;;;;18.25;14.65;;;;;;;;;;9502349;30;20191;-68
2023/05/24 20:12:03;;;;;;;20.92;14.93;;;;;;;;;;9501969;30;20052;-69
2023/05/24 20:16:57;;;;;;;17.25;14.85;;;;;;;;;;9502160;30;20059;-77
2023/05/24 20:21:51;;;;;;;19.05;15.20;;;;;;;;;;9500928;30;20064;-72
2023/05/24 20:26:45;;;;;;;18.77;14.50;;;;;;;;;;9502438;30;20060;-76
2023/05/24 20:31:38;;;;;;;21.30;14.95;;;;;;;;;;9498450;30;20060;-73
2023/05/24 20:36:35;;;;;;;26.55;15.43;;;;;;;;;;9495849;30;20057;-72
2023/05/24 20:41:29;;;;;;;15.57;13.98;;;;;;;;;;9502457;30;20055;-72
2023/05/24 20:46:23;;;;;;;17.77;14.27;;;;;;;;;;9496517;30;20092;-70
2023/05/24 20:51:18;;;;;;;16.67;13.98;;;;;;;;;;9511436;30;20091;-71
2023/05/24 20:56:11;;;;;;;18.02;14.50;;;;;;;;;;9498376;30;20056;-70
2023/05/24 21:01:07;;;;;;;19.05;14.52;;;;;;;;;;9507487;30;20059;-69
2023/05/24 21:06:00;;;;;;;25.33;15.25;;;;;;;;;;9502138;30;20044;-69
2023/05/24 21:10:55;;;;;;;19.38;14.85;;;;;;;;;;9510042;30;20052;-69
2023/05/24 21:15:49;;;;;;;14.52;12.80;;;;;;;;;;9504431;30;20067;-67
2023/05/24 21:20:43;;;;;;;15.30;13.10;;;;;;;;;;9504385;30;20060;-67
2023/05/24 21:25:37;;;;;;;17.33;13.68;;;;;;;;;;9505931;30;20064;-68
2023/05/24 21:30:29;;;;;;;15.43;12.60;;;;;;;;;;9503559;30;20070;-68
2023/05/24 21:35:23;;;;;;;21.88;13.45;;;;;;;;;;9497868;30;20092;-68
2023/05/24 21:40:17;;;;;;;20.10;13.48;;;;;;;;;;9501212;30;20074;-67
2023/05/24 21:45:11;;;;;;;14.80;13.20;;;;;;;;;;9510979;30;20475;-68
2023/05/24 21:50:08;;;;;;;15.98;12.82;;;;;;;;;;9505591;30;20088;-68
2023/05/24 21:55:01;;;;;;;17.60;13.52;;;;;;;;;;9507404;30;20052;-68
2023/05/24 21:59:54;;;;;;;16.10;13.30;;;;;;;;;;9509002;30;20139;-68
2023/05/24 22:04:47;;;;;;;20.77;14.25;;;;;;;;;;9512358;30;20056;-68
2023/05/24 22:09:43;;;;;;;15.43;13.63;;;;;;;;;;9510934;30;20139;-69
2023/05/24 22:14:37;;;;;;;20.83;13.32;;;;;;;;;;9512277;30;20052;-69
2023/05/24 22:19:30;;;;;;;17.23;14.52;;;;;;;;;;9503225;30;20041;-69
2023/05/24 22:24:32;;;;;;;18.77;14.05;;;;;;;;;;9506138;30;20057;-68
2023/05/24 22:29:26;;;;;;;19.27;14.50;;;;;;;;;;9509255;30;20048;-68
2023/05/24 22:34:45;;;;;;;19.67;13.68;;;;;;;;;;9505650;30;20187;-68
2023/05/24 22:39:39;;;;;;;19.60;14.88;;;;;;;;;;9502115;30;20052;-68
2023/05/24 22:44:33;;;;;;;15.30;13.65;;;;;;;;;;9506324;30;20405;-68
2023/05/24 22:49:28;;;;;;;20.50;13.95;;;;;;;;;;9511403;30;20052;-68
2023/05/24 22:54:21;;;;;;;18.23;14.63;;;;;;;;;;9502411;30;20577;-68
2023/05/24 22:59:15;;;;;;;16.70;14.52;;;;;;;;;;9503609;30;20120;-69
2023/05/24 23:04:12;;;;;;;17.20;15.27;;;;;;;;;;9499834;30;20485;-68
2023/05/24 23:09:13;;;;;;;20.17;15.70;;;;;;;;;;9502445;30;20063;-69
2023/05/24 23:14:07;;;;;;;18.90;14.50;;;;;;;;;;9508877;30;20477;-69
2023/05/24 23:19:04;;;;;;;16.45;14.48;;;;;;;;;;9496957;30;20064;-70
2023/05/24 23:23:57;;;;;;;15.25;13.65;;;;;;;;;;9496479;30;20060;-70
2023/05/24 23:28:52;;;;;;;22.98;14.90;;;;;;;;;;9497965;30;20424;-70
2023/05/24 23:33:45;;;;;;;15.27;13.75;;;;;;;;;;9500638;30;20084;-68
2023/05/24 23:38:39;;;;;;;23.17;15.07;;;;;;;;;;9497396;30;20052;-70
2023/05/24 23:43:32;;;;;;;20.58;14.77;;;;;;;;;;9502436;30;20064;-70
2023/05/24 23:48:25;;;;;;;18.00;14.60;;;;;;;;;;9505409;30;20059;-69
2023/05/24 23:53:18;;;;;;;18.00;13.73;;;;;;;;;;9504577;30;20060;-69
2023/05/24 23:58:11;;;;;;;22.67;13.70;;;;;;;;;;9501512;30;20048;-71
